createdAt,value
2016-03-05T10:59:41.487Z,61.77
2016-03-05T11:00:41.600Z,61.77
2016-03-05T11:01:41.602Z,61.48
2016-03-05T11:02:41.605Z,61.77
2016-03-05T11:03:41.607Z,62.05
2016-03-05T11:04:41.626Z,62.15
2016-03-05T11:05:41.629Z,62.05
2016-03-05T11:06:41.632Z,62.24
2016-03-05T11:07:41.634Z,62.24
2016-03-05T11:08:41.669Z,62.34
2016-03-05T11:09:41.655Z,61.86
2016-03-05T11:10:41.657Z,62.15
2016-03-05T11:11:41.660Z,61.86
2016-03-05T11:12:41.662Z,62.24
2016-03-05T11:13:41.682Z,62.05
2016-03-05T11:14:41.668Z,62.24
2016-03-05T11:15:41.671Z,62.15
2016-03-05T11:16:41.221Z,62.62
2016-03-05T11:17:41.692Z,62.62
2016-03-05T11:18:41.882Z,62.53
2016-03-05T11:19:41.713Z,62.62
2016-03-05T11:20:41.716Z,61.38
2016-03-05T11:21:41.720Z,61
2016-03-05T11:22:41.722Z,61.51
2016-03-05T11:23:41.709Z,61.32
2016-03-05T11:24:41.727Z,61.42
2016-03-05T11:25:41.745Z,61.51
2016-03-05T11:26:41.747Z,61.32
2016-03-05T11:27:41.735Z,61.61
2016-03-05T11:28:41.752Z,61.7
2016-03-05T11:29:41.771Z,61.7
2016-03-05T11:30:41.759Z,61.7
2016-03-05T11:31:41.777Z,61.32
2016-03-05T11:32:44.780Z,61.22
2016-03-05T11:33:41.782Z,61.22
2016-03-05T11:34:41.785Z,61.51
2016-03-05T11:35:41.802Z,60.75
2016-03-05T11:36:41.805Z,61.22
2016-03-05T11:37:41.809Z,60.94
2016-03-05T11:38:41.827Z,61.7
2016-03-05T11:39:41.814Z,61.32
2016-03-05T11:40:41.816Z,60.56
2016-03-05T11:41:41.835Z,60.27
2016-03-05T11:42:41.837Z,60.18
2016-03-05T11:43:42.028Z,60.18
2016-03-05T11:44:41.874Z,60.08
2016-03-05T11:45:41.862Z,60.15
2016-03-05T11:46:41.865Z,59.89
2016-03-05T11:47:41.867Z,60.05
2016-03-05T11:48:41.870Z,60.08
2016-03-05T11:49:41.872Z,59.96
2016-03-05T11:50:41.876Z,60.05
2016-03-05T11:51:41.877Z,60.15
2016-03-05T11:52:41.881Z,61.1
2016-03-05T11:53:41.883Z,61.29
2016-03-05T11:54:41.901Z,61.19
2016-03-05T11:55:41.903Z,61.48
2016-03-05T11:56:41.891Z,61.38
2016-03-05T11:57:41.909Z,61.48
2016-03-05T11:58:41.911Z,60.44
2016-03-05T11:59:41.915Z,61.04
2016-03-05T12:00:41.917Z,61.32
2016-03-05T12:01:44.936Z,61.42
2016-03-05T12:02:42.000Z,60.46
2016-03-05T12:03:42.003Z,61.04
2016-03-05T12:04:42.053Z,60.85
2016-03-05T12:05:41.946Z,60.85
2016-03-05T12:06:42.012Z,61.22
2016-03-05T12:07:42.280Z,61.22
2016-03-05T12:08:42.002Z,61.04
2016-03-05T12:09:42.177Z,61.22
2016-03-05T12:10:41.991Z,60.66
2016-03-05T12:11:41.993Z,60.56
2016-03-05T12:12:41.996Z,60.85
2016-03-05T12:13:41.984Z,61.22
2016-03-05T12:14:42.001Z,61.04
2016-03-05T12:15:42.099Z,60.94
2016-03-05T12:16:42.038Z,61.04
2016-03-05T12:17:42.026Z,61.22
2016-03-05T12:18:42.090Z,61.04
2016-03-05T12:19:42.234Z,60.27
2016-03-05T12:20:42.034Z,61.22
2016-03-05T12:21:42.036Z,60.78
2016-03-05T12:22:42.040Z,61.16
2016-03-05T12:23:42.354Z,60.49
2016-03-05T12:24:42.060Z,59.74
2016-03-05T12:25:42.079Z,60.02
2016-03-05T12:26:42.081Z,59.92
2016-03-05T12:27:42.099Z,59.92
2016-03-05T12:28:42.086Z,59.64
2016-03-05T12:29:42.402Z,60.11
2016-03-05T12:30:42.092Z,59.06
2016-03-05T12:31:42.111Z,59.26
2016-03-05T12:32:56.191Z,59.06
2016-03-05T12:33:42.100Z,59.06
2016-03-05T12:34:42.133Z,59.26
2016-03-05T12:35:42.136Z,58.87
2016-03-05T12:36:42.139Z,58.78
2016-03-05T12:37:42.141Z,58.3
2016-03-05T12:39:42.147Z,59.19
2016-03-05T12:40:42.166Z,58.91
2016-03-05T12:41:42.168Z,59.19
2016-03-05T12:42:42.171Z,58.72
2016-03-05T12:43:42.205Z,58.52
2016-03-05T12:44:42.238Z,58.33
2016-03-05T12:45:42.257Z,57.95
2016-03-05T12:46:42.198Z,57.86
2016-03-05T12:47:42.247Z,57.57
2016-03-05T12:48:42.218Z,57.76
2016-03-05T12:49:42.221Z,57.48
2016-03-05T12:50:42.239Z,57.76
2016-03-05T12:51:42.243Z,57.57
2016-03-05T12:52:42.245Z,57.57
2016-03-05T12:53:42.247Z,57.76
2016-03-05T12:54:42.251Z,57.09
2016-03-05T12:55:42.268Z,56.81
2016-03-05T12:56:42.256Z,56.33
2016-03-05T12:57:42.289Z,56.62
2016-03-05T12:58:42.339Z,57.09
2016-03-05T12:59:42.295Z,57.19
2016-03-05T13:00:42.298Z,57.09
2016-03-05T13:01:42.316Z,57.19
2016-03-05T13:02:42.319Z,57.38
2016-03-05T13:03:42.321Z,56.62
2016-03-05T13:04:42.324Z,56.24
2016-03-05T13:05:42.327Z,57.19
2016-03-05T13:06:42.344Z,57.09
2016-03-05T13:07:42.348Z,57.48
2016-03-05T13:08:42.194Z,57.09
2016-03-05T13:09:42.384Z,55.95
2016-03-05T13:10:42.371Z,56.71
2016-03-05T13:11:42.374Z,57.38
2016-03-05T13:12:42.393Z,56.81
2016-03-05T13:13:42.691Z,56.81
2016-03-05T13:14:42.398Z,56.9
2016-03-05T13:15:42.401Z,56.52
2016-03-05T13:16:42.404Z,56.62
2016-03-05T13:17:42.452Z,55.38
2016-03-05T13:18:42.424Z,56.62
2016-03-05T13:19:42.426Z,56.43
2016-03-05T13:20:42.445Z,56.62
2016-03-05T13:21:42.463Z,56.52
2016-03-05T13:22:42.669Z,56.33
2016-03-05T13:23:42.469Z,56.52
2016-03-05T13:24:42.471Z,56.71
2016-03-05T13:25:42.474Z,56.43
2016-03-05T13:26:42.492Z,56.52
2016-03-05T13:27:42.558Z,56.62
2016-03-05T13:28:42.498Z,56.62
2016-03-05T13:29:42.501Z,56.33
2016-03-05T13:30:42.503Z,56.33
2016-03-05T13:31:42.505Z,56.52
2016-03-05T13:32:42.539Z,56.62
2016-03-05T13:33:42.527Z,57.38
2016-03-05T13:34:42.545Z,57.48
2016-03-05T13:35:42.548Z,57.09
2016-03-05T13:36:42.551Z,57
2016-03-05T13:37:42.553Z,56.9
2016-03-05T13:38:42.556Z,55.85
2016-03-05T13:39:42.575Z,55.95
2016-03-05T13:40:42.577Z,55.95
2016-03-05T13:41:42.580Z,55.85
2016-03-05T13:42:42.599Z,55.57
2016-03-05T13:43:43.055Z,55.85
2016-03-05T13:44:42.635Z,54.8
2016-03-05T13:45:42.607Z,55.66
2016-03-05T13:46:42.624Z,55.95
2016-03-05T13:47:42.627Z,56.62
2016-03-05T13:48:42.646Z,56.81
2016-03-05T13:49:42.648Z,56.49
2016-03-05T13:50:42.651Z,56.24
2016-03-05T13:51:42.653Z,56.59
2016-03-05T13:52:42.672Z,56.97
2016-03-05T13:53:42.674Z,57.35
2016-03-05T13:54:42.677Z,57.16
2016-03-05T13:55:42.711Z,56.59
2016-03-05T13:56:42.698Z,56.11
2016-03-05T13:57:42.701Z,56.68
2016-03-05T13:58:42.703Z,57.07
2016-03-05T13:59:42.706Z,57.16
2016-03-05T14:00:42.725Z,56.68
2016-03-05T14:01:42.728Z,56.49
2016-03-05T14:02:42.745Z,56.3
2016-03-05T14:03:42.748Z,55.92
2016-03-05T14:04:42.751Z,56.11
2016-03-05T14:05:42.769Z,56.68
2016-03-05T14:06:42.772Z,56.49
2016-03-05T14:07:42.758Z,55.92
2016-03-05T14:08:42.778Z,56.78
2016-03-05T14:09:42.811Z,56.59
2016-03-05T14:10:42.799Z,56.97
2016-03-05T14:11:42.790Z,56.68
2016-03-05T14:12:42.808Z,57.04
2016-03-05T14:13:42.810Z,57.23
2016-03-05T14:14:42.813Z,57.04
2016-03-05T14:15:42.833Z,57.04
2016-03-05T14:16:42.835Z,57.04
2016-03-05T14:17:42.838Z,57.42
2016-03-05T14:18:42.856Z,57.89
2016-03-05T14:19:42.843Z,57.8
2016-03-05T14:20:42.845Z,57.6
2016-03-05T14:21:42.911Z,57.6
2016-03-05T14:22:42.867Z,57.7
2016-03-05T14:23:42.885Z,57.99
2016-03-05T14:24:42.873Z,57.6
2016-03-05T14:25:42.875Z,58.28
2016-03-05T14:26:42.909Z,58.53
2016-03-05T14:27:42.959Z,58.28
2016-03-05T14:28:42.883Z,59.01
2016-03-05T14:29:42.916Z,58.91
2016-03-05T14:30:43.935Z,59.1
2016-03-05T14:31:42.954Z,58.81
2016-03-05T14:32:42.925Z,59.01
2016-03-05T14:33:42.927Z,59.39
2016-03-05T14:34:42.930Z,58.72
2016-03-05T14:35:42.933Z,59.01
2016-03-05T14:36:42.936Z,59.29
2016-03-05T14:37:42.939Z,59.1
2016-03-05T14:38:42.957Z,59.77
2016-03-05T14:39:42.960Z,59.67
2016-03-05T14:40:42.962Z,59.96
2016-03-05T14:41:42.965Z,59.77
2016-03-05T14:42:42.983Z,59.67
2016-03-05T14:43:42.970Z,59.58
2016-03-05T14:44:42.285Z,60.05
2016-03-05T14:45:42.991Z,60.15
2016-03-05T14:46:42.993Z,60.15
2016-03-05T14:47:42.996Z,60.53
2016-03-05T14:48:42.999Z,60.15
2016-03-05T14:49:43.017Z,60.21
2016-03-05T14:50:43.004Z,60.5
2016-03-05T14:51:43.007Z,60.44
2016-03-05T14:52:43.026Z,60.41
2016-03-05T14:53:43.028Z,61.07
2016-03-05T14:54:43.031Z,60.82
2016-03-05T14:55:43.034Z,61.19
2016-03-05T14:56:43.052Z,61
2016-03-05T14:57:43.039Z,60.78
2016-03-05T14:58:43.089Z,61.07
2016-03-05T14:59:43.059Z,60.78
2016-03-05T15:00:43.062Z,60.69
2016-03-05T15:01:43.065Z,60.78
2016-03-05T15:02:43.084Z,60.88
2016-03-05T15:03:43.070Z,60.78
2016-03-05T15:04:43.073Z,61.07
2016-03-05T15:05:43.092Z,61.64
2016-03-05T15:06:43.078Z,61.35
2016-03-05T15:07:43.081Z,61.74
2016-03-05T15:08:43.100Z,61.45
2016-03-05T15:09:43.103Z,62.21
2016-03-05T15:10:43.136Z,62.21
2016-03-05T15:11:43.108Z,62.02
2016-03-05T15:12:43.110Z,62.3
2016-03-05T15:13:43.129Z,62.49
2016-03-05T15:14:43.132Z,62.97
2016-03-05T15:15:43.135Z,62.88
2016-03-05T15:16:43.262Z,63.35
2016-03-05T15:17:43.155Z,63.17
2016-03-05T15:18:43.142Z,62.88
2016-03-05T15:19:43.145Z,62.88
2016-03-05T15:20:43.163Z,63.45
2016-03-05T15:21:43.150Z,63.45
2016-03-05T15:22:43.154Z,63.26
2016-03-05T15:23:43.171Z,63.26
2016-03-05T15:24:43.158Z,62.59
2016-03-05T15:25:43.162Z,63.26
2016-03-05T15:26:43.179Z,62.78
2016-03-05T15:27:43.182Z,63.04
2016-03-05T15:28:43.169Z,62.94
2016-03-05T15:29:43.219Z,63.32
2016-03-05T15:30:43.206Z,63.32
2016-03-05T15:31:43.192Z,63.04
2016-03-05T15:32:43.195Z,63.89
2016-03-05T15:33:43.245Z,63.23
2016-03-05T15:34:43.217Z,63.13
2016-03-05T15:35:43.203Z,63.79
2016-03-05T15:36:43.206Z,63.79
2016-03-05T15:37:43.208Z,63.7
2016-03-05T15:38:43.525Z,63.79
2016-03-05T15:39:43.215Z,63.79
2016-03-05T15:40:43.233Z,63.51
2016-03-05T15:41:43.235Z,63.51
2016-03-05T15:42:43.238Z,63.51
2016-03-05T15:43:43.224Z,63.51
2016-03-05T15:44:43.494Z,64.08
2016-03-05T15:45:43.246Z,64.37
2016-03-05T15:46:43.280Z,64.18
2016-03-05T15:47:43.235Z,64.08
2016-03-05T15:48:43.255Z,64.27
2016-03-05T15:49:43.257Z,64.18
2016-03-05T15:50:43.557Z,64.37
2016-03-05T15:51:43.262Z,64.46
2016-03-05T15:52:43.265Z,64.65
2016-03-05T15:53:43.268Z,64.75
2016-03-05T15:54:43.271Z,64.94
2016-03-05T15:55:43.273Z,65.03
2016-03-05T15:56:43.275Z,65.13
2016-03-05T15:57:43.278Z,65.22
2016-03-05T15:58:43.298Z,65.32
2016-03-05T15:59:43.284Z,64.84
2016-03-05T16:00:43.287Z,65.22
2016-03-05T16:01:43.289Z,65.86
2016-03-05T16:02:43.291Z,65.7
2016-03-05T16:03:43.295Z,65.28
2016-03-05T16:04:43.297Z,65.09
2016-03-05T16:05:43.300Z,65.57
2016-03-05T16:06:43.302Z,65.28
2016-03-05T16:07:43.322Z,65.09
2016-03-05T16:08:43.339Z,65.28
2016-03-05T16:09:43.311Z,65.28
2016-03-05T16:10:43.329Z,65.28
2016-03-05T16:11:43.989Z,65.28
2016-03-05T16:12:43.163Z,65.67
2016-03-05T16:13:43.338Z,65.57
2016-03-05T16:14:43.340Z,66.14
2016-03-05T16:15:43.343Z,65.57
2016-03-05T16:16:43.346Z,65.57
2016-03-05T16:17:43.349Z,65.57
2016-03-05T16:18:43.382Z,66.14
2016-03-05T16:19:43.353Z,65.95
2016-03-05T16:20:43.357Z,66.24
2016-03-05T16:21:43.359Z,66.14
2016-03-05T16:22:43.377Z,66.24
2016-03-05T16:23:43.364Z,66.14
2016-03-05T16:24:43.368Z,66.42
2016-03-05T16:25:43.370Z,66.52
2016-03-05T16:26:43.373Z,66.14
2016-03-05T16:27:43.375Z,66.24
2016-03-05T16:28:43.377Z,66.71
2016-03-05T16:29:43.365Z,66.42
2016-03-05T16:30:43.399Z,66.52
2016-03-05T16:31:43.386Z,66.42
2016-03-05T16:32:43.388Z,67
2016-03-05T16:33:43.392Z,66.9
2016-03-05T16:34:43.831Z,66.52
2016-03-05T16:35:43.553Z,67.09
2016-03-05T16:36:43.399Z,67
2016-03-05T16:37:43.386Z,67
2016-03-05T16:38:43.388Z,66.9
2016-03-05T16:39:43.408Z,67
2016-03-05T16:40:43.394Z,67.06
2016-03-05T16:41:43.396Z,67.44
2016-03-05T16:42:43.400Z,67.44
2016-03-05T16:43:43.434Z,67.25
2016-03-05T16:44:43.421Z,67.15
2016-03-05T16:45:43.391Z,66.96
2016-03-05T16:46:43.411Z,66.96
2016-03-05T16:47:43.412Z,67.06
2016-03-05T16:48:43.416Z,67.72
2016-03-05T16:49:43.434Z,67.53
2016-03-05T16:50:43.421Z,67.72
2016-03-05T16:51:43.424Z,67.53
2016-03-05T16:52:43.427Z,67.63
2016-03-05T16:53:43.429Z,67.63
2016-03-05T16:54:43.415Z,67.82
2016-03-05T16:55:43.435Z,67.63
2016-03-05T16:56:43.437Z,67.53
2016-03-05T16:57:43.862Z,68.1
2016-03-05T16:58:43.879Z,67.91
2016-03-05T16:59:43.429Z,67.82
2016-03-05T17:00:43.432Z,68.1
2016-03-05T17:01:43.684Z,67.63
2016-03-05T17:02:43.515Z,67.82
2016-03-05T17:03:43.658Z,67.82
2016-03-05T17:04:43.662Z,68.19
2016-03-05T17:07:17.919Z,67.91
2016-03-05T17:08:18.017Z,67.82
2016-03-05T17:09:18.019Z,68.19
2016-03-05T17:10:17.912Z,68.19
2016-03-05T17:11:18.024Z,68.29
2016-03-05T17:13:05.589Z,68.67
2016-03-05T17:14:05.280Z,68.96
2016-03-05T17:15:04.657Z,68.86
2016-03-05T17:16:04.660Z,69.15
2016-03-05T17:17:04.678Z,69.11
2016-03-05T17:22:09.082Z,69.21
2016-03-05T17:23:09.085Z,69.24
2016-03-05T17:24:09.088Z,68.92
2016-03-05T17:25:09.090Z,69.4
2016-03-05T17:26:09.093Z,69.59
2016-03-05T17:27:09.080Z,69.21
2016-03-05T17:28:09.098Z,69.02
2016-03-05T17:29:09.101Z,69.3
2016-03-05T17:30:09.104Z,69.02
2016-03-05T17:31:09.091Z,69.3
2016-03-05T17:32:09.093Z,68.92
2016-03-05T17:33:09.112Z,69.11
2016-03-05T17:34:09.099Z,69.3
2016-03-05T17:35:09.101Z,69.4
2016-03-05T17:36:09.104Z,69.21
2016-03-05T17:37:09.106Z,68.83
2016-03-05T17:38:09.110Z,69.96
2016-03-05T17:39:09.097Z,68.83
2016-03-05T17:40:09.115Z,68.83
2016-03-05T17:41:09.102Z,69.3
2016-03-05T17:42:09.120Z,69.3
2016-03-05T17:43:09.108Z,69.02
2016-03-05T17:44:09.110Z,69.96
2016-03-05T17:45:09.114Z,69.4
2016-03-05T17:46:09.125Z,69.4
2016-03-05T17:47:09.111Z,69.78
2016-03-05T17:48:09.114Z,69.68
2016-03-05T17:49:09.117Z,69.78
2016-03-05T17:50:09.120Z,69.68
2016-03-05T17:51:09.122Z,69.59
2016-03-05T17:52:09.109Z,69.68
2016-03-05T17:53:09.331Z,69.78
2016-03-05T17:54:09.130Z,69.68
2016-03-05T17:55:09.133Z,69.59
2016-03-05T17:56:09.135Z,69.59
2016-03-05T17:57:09.122Z,69.3
2016-03-05T17:58:09.141Z,69.87
2016-03-05T17:59:09.144Z,69.59
2016-03-05T18:00:12.146Z,69.87
2016-03-05T18:01:09.133Z,69.59
2016-03-05T18:02:09.199Z,69.59
2016-03-05T18:03:09.138Z,69.4
2016-03-05T18:04:09.141Z,69.68
2016-03-05T18:05:09.144Z,69.68
2016-03-05T18:06:09.146Z,69.87
2016-03-05T18:07:09.149Z,69.68
2016-03-05T18:08:09.152Z,69.68
2016-03-05T18:09:09.140Z,69.4
2016-03-05T18:10:09.157Z,69.68
2016-03-05T18:11:09.145Z,69.87
2016-03-05T18:12:09.162Z,70.15
2016-03-05T18:13:09.151Z,70.63
2016-03-05T18:14:09.153Z,70.54
2016-03-05T18:15:09.170Z,70.63
2016-03-05T18:16:09.159Z,70.63
2016-03-05T18:17:09.162Z,70.44
2016-03-05T18:18:09.179Z,70.35
2016-03-05T18:19:09.166Z,70.35
2016-03-05T18:20:09.170Z,70.54
2016-03-05T18:21:09.172Z,70.54
2016-03-05T18:22:09.174Z,70.44
2016-03-05T18:23:09.224Z,70.63
2016-03-05T18:24:09.164Z,70.44
2016-03-05T18:25:09.183Z,70.73
2016-03-05T18:26:09.169Z,70.92
2016-03-05T18:27:09.188Z,70.54
2016-03-05T18:28:09.175Z,70.54
2016-03-05T18:29:09.208Z,70.54
2016-03-05T18:30:09.180Z,70.44
2016-03-05T18:31:09.183Z,70.35
2016-03-05T18:32:09.217Z,70.44
2016-03-05T18:33:09.187Z,71.01
2016-03-05T18:34:09.164Z,70.92
2016-03-05T18:35:09.155Z,70.92
2016-03-05T18:36:09.161Z,70.54
2016-03-05T18:37:09.139Z,71.01
2016-03-05T18:38:09.130Z,70.54
2016-03-05T18:39:09.113Z,70.92
2016-03-05T18:40:09.142Z,70.92
2016-03-05T18:41:09.126Z,70.92
2016-03-05T18:42:09.124Z,70.63
2016-03-05T18:43:09.107Z,71.11
2016-03-05T18:44:09.124Z,70.92
2016-03-05T18:45:09.110Z,71.01
2016-03-05T18:46:09.127Z,71.11
2016-03-05T18:47:09.112Z,71.11
2016-03-05T18:48:09.113Z,71.11
2016-03-05T18:49:09.116Z,70.92
2016-03-05T18:50:09.118Z,71.11
2016-03-05T18:51:09.120Z,71.11
2016-03-05T18:52:09.123Z,71.3
2016-03-05T18:53:09.124Z,70.92
2016-03-05T18:54:09.111Z,71.01
2016-03-05T18:55:09.113Z,70.92
2016-03-05T18:56:09.147Z,71.2
2016-03-05T18:57:09.414Z,71.11
2016-03-05T18:58:09.120Z,71.3
2016-03-05T18:59:09.122Z,71.11
2016-03-05T19:00:09.111Z,71.11
2016-03-05T19:01:09.128Z,71.11
2016-03-05T19:02:09.116Z,71.11
2016-03-05T19:03:09.150Z,71.39
2016-03-05T19:04:09.121Z,71.3
2016-03-05T19:05:09.124Z,71.48
2016-03-05T19:06:09.021Z,71.3
2016-03-05T19:07:09.138Z,71.58
2016-03-05T19:08:09.235Z,71.3
2016-03-05T19:09:09.128Z,71.2
2016-03-05T19:10:09.412Z,71.3
2016-03-05T19:11:09.118Z,71.39
2016-03-05T19:12:09.136Z,71.2
2016-03-05T19:13:09.123Z,71.48
2016-03-05T19:14:09.142Z,71.48
2016-03-05T19:15:09.128Z,71.67
2016-03-05T19:16:09.132Z,71.39
2016-03-05T19:17:09.150Z,71.67
2016-03-05T19:18:09.153Z,71.48
2016-03-05T19:19:09.202Z,71.3
2016-03-05T19:20:09.220Z,71.36
2016-03-05T19:21:09.161Z,71.3
2016-03-05T19:22:09.148Z,71.2
2016-03-05T19:23:09.136Z,71.26
2016-03-05T19:24:09.138Z,71.86
2016-03-05T19:25:09.141Z,71.55
2016-03-05T19:26:09.144Z,71.55
2016-03-05T19:27:09.146Z,71.67
2016-03-05T19:28:09.148Z,71.83
2016-03-05T19:29:09.166Z,71.86
2016-03-05T19:30:09.154Z,71.83
2016-03-05T19:31:09.140Z,71.73
2016-03-05T19:32:09.144Z,71.92
2016-03-05T19:33:09.162Z,72.21
2016-03-05T19:34:09.149Z,72.02
2016-03-05T19:35:09.152Z,72.21
2016-03-05T19:36:09.155Z,72.3
2016-03-05T19:37:09.142Z,72.4
2016-03-05T19:38:09.001Z,72.3
2016-03-05T19:39:09.160Z,72.3
2016-03-05T19:40:09.263Z,72.3
2016-03-05T19:41:09.158Z,72.21
2016-03-05T19:42:09.363Z,72.4
2016-03-05T19:43:09.429Z,72.11
2016-03-05T19:44:09.166Z,72.34
2016-03-05T19:45:09.153Z,72.21
2016-03-05T19:46:09.171Z,72.21
2016-03-05T19:47:09.221Z,72.21
2016-03-05T19:48:09.301Z,72.21
2016-03-05T19:49:09.273Z,71.92
2016-03-05T19:50:09.292Z,72.11
2016-03-05T19:51:09.356Z,72.21
2016-03-05T19:52:09.282Z,72.02
2016-03-05T19:53:09.300Z,72.21
2016-03-05T19:54:09.177Z,72.02
2016-03-05T19:55:09.399Z,72.11
2016-03-05T19:56:09.198Z,72.11
2016-03-05T19:57:09.263Z,72.11
2016-03-05T19:58:09.173Z,72.21
2016-03-05T19:59:09.206Z,72.3
2016-03-05T20:00:09.178Z,72.02
2016-03-05T20:01:09.274Z,72.11
2016-03-05T20:02:09.183Z,72.78
2016-03-05T20:03:09.170Z,72.78
2016-03-05T20:04:09.172Z,72.68
2016-03-05T20:05:09.175Z,72.68
2016-03-05T20:06:09.178Z,72.4
2016-03-05T20:07:09.166Z,72.49
2016-03-05T20:08:09.168Z,72.59
2016-03-05T20:09:09.186Z,73.07
2016-03-05T20:10:09.174Z,73.07
2016-03-05T20:11:09.176Z,73.16
2016-03-05T20:12:09.179Z,72.78
2016-03-05T20:13:09.182Z,72.68
2016-03-05T20:14:09.184Z,73.25
2016-03-05T20:15:09.203Z,72.49
2016-03-05T20:16:09.173Z,73.25
2016-03-05T20:17:09.177Z,73.25
2016-03-05T20:18:09.179Z,72.88
2016-03-05T20:19:09.228Z,72.78
2016-03-05T20:20:09.185Z,72.88
2016-03-05T20:21:09.203Z,73.16
2016-03-05T20:22:09.174Z,72.88
2016-03-05T20:23:09.177Z,72.78
2016-03-05T20:24:09.179Z,73.16
2016-03-05T20:25:09.182Z,72.78
2016-03-05T20:26:09.185Z,72.88
2016-03-05T20:27:09.187Z,72.78
2016-03-05T20:28:09.175Z,72.84
2016-03-05T20:29:09.193Z,72.64
2016-03-05T20:30:09.181Z,73.07
2016-03-05T20:31:09.183Z,72.88
2016-03-05T20:32:09.200Z,72.78
2016-03-05T20:33:09.189Z,73.03
2016-03-05T20:34:09.206Z,72.84
2016-03-05T20:35:09.194Z,72.88
2016-03-05T20:36:09.196Z,72.93
2016-03-05T20:37:09.575Z,72.74
2016-03-05T20:38:09.296Z,72.74
2016-03-05T20:39:09.282Z,72.84
2016-03-05T20:40:09.208Z,72.64
2016-03-05T20:41:09.335Z,72.74
2016-03-05T20:42:09.212Z,72.64
2016-03-05T20:43:09.450Z,72.84
2016-03-05T20:44:09.296Z,73.03
2016-03-05T20:45:09.768Z,73.41
2016-03-05T20:46:09.193Z,73.69
2016-03-05T20:47:09.398Z,73.69
2016-03-05T20:48:09.229Z,73.69
2016-03-05T20:49:09.184Z,73.69
2016-03-05T20:50:09.187Z,73.69
2016-03-05T20:51:10.846Z,73.6
2016-03-05T20:52:09.208Z,73.41
2016-03-05T20:53:09.430Z,73.41
2016-03-05T20:54:09.542Z,73.5
2016-03-05T20:55:09.778Z,73.41
2016-03-05T20:56:09.579Z,73.41
2016-03-05T20:57:10.206Z,73.31
2016-03-05T20:58:09.193Z,73.5
2016-03-05T20:59:09.195Z,73.97
2016-03-05T21:00:09.199Z,73.69
2016-03-05T21:01:09.373Z,73.79
2016-03-05T21:02:09.500Z,73.79
2016-03-05T21:03:09.316Z,73.69
2016-03-05T21:04:09.459Z,73.79
2016-03-05T21:05:09.430Z,74.07
2016-03-05T21:06:09.214Z,73.79
2016-03-05T21:07:09.327Z,73.79
2016-03-05T21:08:09.345Z,73.97
2016-03-05T21:09:09.457Z,73.79
2016-03-05T21:10:09.178Z,73.6
2016-03-05T21:11:09.197Z,73.5
2016-03-05T21:12:09.418Z,73.69
2016-03-05T21:13:09.890Z,73.79
2016-03-05T21:14:10.502Z,73.88
2016-03-05T21:15:09.395Z,73.79
2016-03-05T21:16:09.274Z,73.79
2016-03-05T21:17:09.197Z,73.69
2016-03-05T21:18:09.199Z,73.79
2016-03-05T21:19:09.202Z,73.97
2016-03-05T21:20:09.190Z,73.97
2016-03-05T21:21:09.192Z,73.97
2016-03-05T21:22:09.195Z,73.97
2016-03-05T21:23:09.479Z,73.79
2016-03-05T21:24:09.310Z,73.97
2016-03-05T21:25:09.218Z,73.97
2016-03-05T21:26:09.253Z,74.07
2016-03-05T21:27:09.506Z,73.97
2016-03-05T21:28:09.476Z,73.97
2016-03-05T21:29:09.339Z,73.88
2016-03-05T21:30:09.998Z,73.69
2016-03-05T21:31:10.032Z,73.69
2016-03-05T21:32:09.659Z,73.88
2016-03-05T21:33:09.505Z,73.79
2016-03-05T21:34:09.462Z,73.79
2016-03-05T21:35:09.183Z,73.88
2016-03-05T21:36:10.747Z,73.79
2016-03-05T21:37:10.126Z,74.64
2016-03-05T21:38:09.816Z,74.26
2016-03-05T21:39:09.803Z,74.35
2016-03-05T21:40:10.009Z,74.16
2016-03-05T21:41:09.449Z,74.16
2016-03-05T21:42:10.186Z,74.16
2016-03-05T21:43:09.767Z,74.64
2016-03-05T21:44:09.176Z,74.54
2016-03-05T21:45:09.897Z,74.45
2016-03-05T21:46:09.432Z,74.73
2016-03-05T21:47:09.310Z,74.73
2016-03-05T21:48:09.187Z,74.73
2016-03-05T21:49:09.268Z,74.54
2016-03-05T21:50:10.395Z,74.83
2016-03-05T21:51:10.507Z,74.73
2016-03-05T21:52:09.681Z,74.54
2016-03-05T21:53:09.669Z,74.64
2016-03-05T21:54:09.484Z,74.64
2016-03-05T21:55:09.299Z,74.73
2016-03-05T21:56:09.318Z,74.54
2016-03-05T21:57:09.211Z,74.54
2016-03-05T21:58:09.276Z,74.83
2016-03-05T21:59:09.482Z,74.64
2016-03-05T22:00:09.187Z,74.64
2016-03-05T22:01:09.300Z,74.83
2016-03-05T22:02:09.193Z,74.73
2016-03-05T22:03:09.181Z,74.64
2016-03-05T22:04:09.183Z,74.73
2016-03-05T22:05:09.170Z,74.73
2016-03-05T22:06:09.173Z,74.73
2016-03-05T22:07:09.191Z,74.83
2016-03-05T22:08:09.193Z,74.73
2016-03-05T22:09:09.180Z,74.54
2016-03-05T22:10:09.183Z,74.26
2016-03-05T22:11:09.186Z,74.64
2016-03-05T22:12:09.173Z,74.83
2016-03-05T22:13:09.177Z,74.73
2016-03-05T22:14:09.179Z,74.73
2016-03-05T22:15:09.181Z,74.54
2016-03-05T22:16:09.919Z,74.83
2016-03-05T22:17:09.187Z,74.73
2016-03-05T22:18:09.174Z,74.73
2016-03-05T22:19:09.505Z,74.64
2016-03-05T22:20:09.179Z,74.54
2016-03-05T22:21:09.354Z,74.64
2016-03-05T22:22:09.215Z,74.83
2016-03-05T22:23:09.187Z,74.45
2016-03-05T22:24:09.174Z,74.64
2016-03-05T22:25:09.176Z,74.92
2016-03-05T22:26:09.180Z,74.83
2016-03-05T22:27:09.182Z,74.73
2016-03-05T22:28:09.184Z,74.64
2016-03-05T22:29:09.173Z,74.83
2016-03-05T22:30:09.175Z,74.54
2016-03-05T22:31:09.177Z,74.83
2016-03-05T22:32:09.181Z,74.16
2016-03-05T22:33:09.167Z,74.83
2016-03-05T22:34:09.170Z,74.73
2016-03-05T22:35:09.173Z,74.73
2016-03-05T22:36:09.191Z,74.73
2016-03-05T22:37:09.194Z,74.73
2016-03-05T22:38:09.212Z,74.64
2016-03-05T22:39:09.167Z,74.54
2016-03-05T22:40:09.170Z,74.64
2016-03-05T22:41:09.173Z,74.54
2016-03-05T22:42:09.176Z,74.73
2016-03-05T22:43:09.194Z,74.54
2016-03-05T22:44:09.181Z,74.73
2016-03-05T22:45:09.169Z,74.54
2016-03-05T22:46:09.172Z,74.73
2016-03-05T22:47:09.643Z,74.54
2016-03-05T22:48:09.161Z,74.83
2016-03-05T22:49:09.164Z,74.64
2016-03-05T22:50:09.166Z,74.83
2016-03-05T22:51:09.169Z,75.49
2016-03-05T22:52:09.172Z,74.64
2016-03-05T22:53:09.190Z,74.73
2016-03-05T22:54:09.161Z,75.11
2016-03-05T22:55:09.164Z,74.92
2016-03-05T22:56:09.167Z,74.83
2016-03-05T22:57:09.169Z,75.4
2016-03-05T22:58:09.173Z,75.49
2016-03-05T22:59:09.159Z,75.96
2016-03-05T23:00:09.161Z,75.96
2016-03-05T23:01:09.165Z,75.21
2016-03-05T23:02:09.167Z,75.21
2016-03-05T23:03:09.153Z,75.11
2016-03-05T23:04:09.157Z,75.49
2016-03-05T23:05:09.159Z,75.4
2016-03-05T23:06:09.162Z,75.4
2016-03-05T23:07:09.164Z,75.59
2016-03-05T23:08:09.183Z,75.59
2016-03-05T23:09:09.186Z,75.78
2016-03-05T23:10:09.158Z,75.68
2016-03-05T23:11:09.175Z,75.59
2016-03-05T23:12:09.163Z,75.11
2016-03-05T23:13:09.149Z,75.02
2016-03-05T23:14:09.153Z,75.02
2016-03-05T23:15:09.155Z,75.02
2016-03-05T23:16:09.157Z,74.83
2016-03-05T23:17:09.177Z,75.11
2016-03-05T23:18:09.147Z,74.83
2016-03-05T23:19:09.165Z,75.31
2016-03-05T23:20:09.153Z,74.83
2016-03-05T23:21:09.155Z,75.02
2016-03-05T23:22:09.002Z,74.83
2016-03-05T23:23:09.146Z,75.02
2016-03-05T23:24:09.148Z,75.11
2016-03-05T23:25:09.166Z,74.83
2016-03-05T23:26:09.154Z,74.83
2016-03-05T23:27:09.140Z,75.49
2016-03-05T23:28:09.159Z,75.59
2016-03-05T23:29:09.146Z,75.59
2016-03-05T23:30:09.149Z,75.59
2016-03-05T23:31:09.151Z,75.59
2016-03-05T23:32:09.138Z,75.49
2016-03-05T23:33:09.157Z,75.21
2016-03-05T23:34:09.144Z,75.31
2016-03-05T23:35:08.989Z,75.49
2016-03-05T23:36:09.150Z,75.49
2016-03-05T23:37:09.136Z,75.59
2016-03-05T23:38:09.155Z,75.49
2016-03-05T23:39:09.142Z,75.59
2016-03-05T23:40:09.144Z,75.59
2016-03-05T23:41:09.131Z,75.59
2016-03-05T23:42:09.133Z,75.59
2016-03-05T23:43:09.137Z,75.49
2016-03-05T23:44:09.139Z,75.4
2016-03-05T23:45:09.142Z,75.87
2016-03-05T23:46:09.144Z,75.59
2016-03-05T23:47:09.147Z,75.59
2016-03-05T23:48:09.134Z,75.49
2016-03-05T23:49:09.138Z,75.78
2016-03-05T23:50:09.155Z,75.59
2016-03-05T23:51:09.486Z,75.49
2016-03-05T23:52:09.145Z,75.49
2016-03-05T23:53:09.133Z,75.68
2016-03-05T23:54:09.135Z,75.78
2016-03-05T23:55:09.138Z,75.87
2016-03-05T23:56:09.140Z,75.11
2016-03-05T23:57:09.127Z,75.21
2016-03-05T23:58:09.129Z,75.31
2016-03-05T23:59:09.149Z,75.68
